createdAt,value
2023-01-17T00:36:17.255Z,74.90
2023-01-17T00:37:17.251Z,72.10
2023-01-17T00:38:17.240Z,71.93
2023-01-17T00:39:17.235Z,70.56
2023-01-17T00:40:17.225Z,69.05
2023-01-17T00:41:17.212Z,74.13
2023-01-17T00:42:17.207Z,72.81
2023-01-17T00:43:17.212Z,71.35
2023-01-17T00:44:17.190Z,72.12
2023-01-17T00:45:17.172Z,73.08
2023-01-17T00:46:17.195Z,77.65
2023-01-17T00:47:17.147Z,75.85
2023-01-17T00:48:17.148Z,75.30
2023-01-17T00:49:17.142Z,76.80
2023-01-17T00:50:17.126Z,75.05
2023-01-17T00:51:17.117Z,76.56
2023-01-17T00:52:17.107Z,78.31
2023-01-17T00:53:17.095Z,70.50
2023-01-17T00:54:18.996Z,69.05
2023-01-17T00:55:17.093Z,65.43
2023-01-17T00:56:17.064Z,57.71
2023-01-17T00:57:17.061Z,55.83
2023-01-17T00:58:17.064Z,53.78
2023-01-17T00:59:17.064Z,55.59
2023-01-17T01:00:17.052Z,54.34
2023-01-17T01:01:17.159Z,55.37
2023-01-17T01:02:17.035Z,46.53
2023-01-17T01:03:17.015Z,47.18
2023-01-17T01:04:17.001Z,48.69
2023-01-17T01:05:16.985Z,46.11
2023-01-17T01:06:16.980Z,41.80
2023-01-17T01:07:16.966Z,44.89
2023-01-17T01:08:16.978Z,42.74
2023-01-17T01:09:16.967Z,38.94
2023-01-17T01:10:16.945Z,35.49
2023-01-17T01:11:16.945Z,37.08
2023-01-17T01:12:16.946Z,34.59
2023-01-17T01:13:16.939Z,31.90
2023-01-17T01:14:16.920Z,33.92
2023-01-17T01:15:16.915Z,31.47
2023-01-17T01:16:16.923Z,30.62
2023-01-17T01:17:16.909Z,29.87
2023-01-17T01:18:16.902Z,26.68
2023-01-17T01:19:17.100Z,26.10
2023-01-17T01:20:16.880Z,26.84
2023-01-17T01:21:16.868Z,27.00
2023-01-17T01:22:16.861Z,28.00
2023-01-17T01:23:16.854Z,28.05
2023-01-17T01:24:16.867Z,29.51
2023-01-17T01:25:16.833Z,28.19
2023-01-17T01:26:16.826Z,30.82
2023-01-17T01:27:16.823Z,30.81
2023-01-17T01:28:16.813Z,30.73
2023-01-17T01:29:16.820Z,29.82
2023-01-17T01:30:16.794Z,30.69
2023-01-17T01:31:16.816Z,28.05
2023-01-17T01:32:16.767Z,29.66
2023-01-17T01:33:16.771Z,31.58
2023-01-17T01:34:16.760Z,27.59
2023-01-17T01:35:16.758Z,32.18
2023-01-17T01:36:16.735Z,34.84
2023-01-17T01:37:16.724Z,32.65
2023-01-17T01:38:16.712Z,34.00
2023-01-17T01:39:16.738Z,39.29
2023-01-17T01:40:16.702Z,37.42
2023-01-17T01:41:16.699Z,41.29
2023-01-17T01:42:16.701Z,41.93
2023-01-17T01:43:16.696Z,47.60
2023-01-17T01:44:16.684Z,55.11
2023-01-17T01:45:16.667Z,58.67
2023-01-17T01:46:16.666Z,64.86
2023-01-17T01:47:16.668Z,62.69
2023-01-17T01:48:16.639Z,63.19
2023-01-17T01:49:16.630Z,66.95
2023-01-17T01:50:16.634Z,70.49
2023-01-17T01:51:16.602Z,67.90
2023-01-17T01:52:16.609Z,74.25
2023-01-17T01:53:16.582Z,71.63
2023-01-17T01:54:16.573Z,74.25
2023-01-17T01:55:16.567Z,77.04
2023-01-17T01:56:16.554Z,76.02
2023-01-17T01:57:16.535Z,78.24
2023-01-17T01:58:16.519Z,77.74
2023-01-17T01:59:16.515Z,77.73
2023-01-17T02:00:16.526Z,79.68
2023-01-17T02:01:16.578Z,81.84
2023-01-17T02:02:16.485Z,80.95
2023-01-17T02:03:16.466Z,77.47
2023-01-17T02:04:16.458Z,75.18
2023-01-17T02:05:16.450Z,77.84
2023-01-17T02:06:16.448Z,79.68
2023-01-17T02:07:16.423Z,78.16
2023-01-17T02:08:16.413Z,79.19
2023-01-17T02:09:16.406Z,81.43
2023-01-17T02:10:16.386Z,81.26
2023-01-17T02:11:16.386Z,80.43
2023-01-17T02:12:16.381Z,79.13
2023-01-17T02:13:16.363Z,79.54
2023-01-17T02:14:16.343Z,83.49
2023-01-17T02:15:16.337Z,82.47
2023-01-17T02:16:16.363Z,80.66
2023-01-17T02:17:16.317Z,79.37
2023-01-17T02:18:16.307Z,74.69
2023-01-17T02:19:16.291Z,71.91
2023-01-17T02:20:16.276Z,64.74
2023-01-17T02:21:16.264Z,64.66
2023-01-17T02:22:16.257Z,62.68
2023-01-17T02:23:16.246Z,63.75
2023-01-17T02:24:16.238Z,53.25
2023-01-17T02:25:16.220Z,50.77
2023-01-17T02:26:16.219Z,54.90
2023-01-17T02:27:16.211Z,52.75
2023-01-17T02:28:16.204Z,52.83
2023-01-17T02:29:16.187Z,47.98
2023-01-17T02:30:16.174Z,41.48
2023-01-17T02:31:16.164Z,39.18
2023-01-17T02:32:16.174Z,39.46
2023-01-17T02:33:16.146Z,40.36
2023-01-17T02:34:16.138Z,34.29
2023-01-17T02:35:16.133Z,32.77
2023-01-17T02:36:16.120Z,31.59
2023-01-17T02:37:16.106Z,28.74
2023-01-17T02:38:16.124Z,28.47
2023-01-17T02:39:16.100Z,26.97
2023-01-17T02:40:16.106Z,25.00
2023-01-17T02:41:16.092Z,26.23
2023-01-17T02:42:16.087Z,26.82
2023-01-17T02:43:16.079Z,27.45
2023-01-17T02:44:16.068Z,32.18
2023-01-17T02:45:16.067Z,26.71
2023-01-17T02:46:16.072Z,26.41
2023-01-17T02:47:16.047Z,28.11
2023-01-17T02:48:16.041Z,25.10
2023-01-17T02:49:16.022Z,28.55
2023-01-17T02:50:16.038Z,27.47
2023-01-17T02:51:16.022Z,29.96
2023-01-17T02:52:16.003Z,35.00
2023-01-17T02:53:15.988Z,36.54
2023-01-17T02:54:15.979Z,45.45
2023-01-17T02:55:15.971Z,44.27
2023-01-17T02:56:15.974Z,50.00
2023-01-17T02:57:15.948Z,52.39
2023-01-17T02:58:15.931Z,57.80
2023-01-17T02:59:15.924Z,55.45
2023-01-17T03:00:15.921Z,58.07
2023-01-17T03:01:16.064Z,60.88
2023-01-17T03:02:16.022Z,63.52
2023-01-17T03:03:15.886Z,63.84
2023-01-17T03:04:15.885Z,64.14
2023-01-17T03:05:15.875Z,65.48
2023-01-17T03:06:15.864Z,66.54
2023-01-17T03:07:15.869Z,71.99
2023-01-17T03:08:15.847Z,72.94
2023-01-17T03:09:15.829Z,77.18
2023-01-17T03:10:15.825Z,77.45
2023-01-17T03:11:15.804Z,78.24
2023-01-17T03:12:15.790Z,81.13
2023-01-17T03:13:15.781Z,79.04
2023-01-17T03:14:15.768Z,82.73
2023-01-17T03:15:15.748Z,86.64
2023-01-17T03:16:15.755Z,82.54
2023-01-17T03:17:15.748Z,80.95
2023-01-17T03:18:15.720Z,78.12
2023-01-17T03:19:15.703Z,74.28
2023-01-17T03:20:15.696Z,77.12
2023-01-17T03:21:15.687Z,78.40
2023-01-17T03:22:15.691Z,78.67
2023-01-17T03:23:15.689Z,78.22
2023-01-17T03:24:15.664Z,83.14
2023-01-17T03:25:15.642Z,82.69
2023-01-17T03:26:15.633Z,78.57
2023-01-17T03:27:15.622Z,83.79
2023-01-17T03:28:15.619Z,80.31
2023-01-17T03:29:15.613Z,79.47
2023-01-17T03:30:15.603Z,77.67
2023-01-17T03:31:15.607Z,75.49
2023-01-17T03:32:15.589Z,75.57
2023-01-17T03:33:15.578Z,78.78
2023-01-17T03:34:15.580Z,75.92
2023-01-17T03:35:15.573Z,69.05
2023-01-17T03:36:15.571Z,62.32
2023-01-17T03:37:15.553Z,56.19
2023-01-17T03:38:15.574Z,62.51
2023-01-17T03:39:15.544Z,56.40
2023-01-17T03:40:15.535Z,57.78
2023-01-17T03:41:15.536Z,58.75
2023-01-17T03:42:15.503Z,53.99
2023-01-17T03:43:15.527Z,45.52
2023-01-17T03:44:15.494Z,50.27
2023-01-17T03:45:15.492Z,46.62
2023-01-17T03:46:15.483Z,44.70
2023-01-17T03:47:15.468Z,42.07
2023-01-17T03:48:15.462Z,38.93
2023-01-17T03:49:15.448Z,38.76
2023-01-17T03:50:15.447Z,37.10
2023-01-17T03:51:15.436Z,34.68
2023-01-17T03:52:15.416Z,35.10
2023-01-17T03:53:15.403Z,36.17
2023-01-17T03:54:15.394Z,29.90
2023-01-17T03:55:15.388Z,35.87
2023-01-17T03:56:15.392Z,35.03
2023-01-17T03:57:15.369Z,31.83
2023-01-17T03:58:15.357Z,32.52
2023-01-17T03:59:15.356Z,30.77
2023-01-17T04:00:15.362Z,34.55
2023-01-17T04:01:15.448Z,35.82
2023-01-17T04:02:15.521Z,33.20
2023-01-17T04:03:15.321Z,37.08
2023-01-17T04:04:15.317Z,41.78
2023-01-17T04:05:15.314Z,45.80
2023-01-17T04:06:15.287Z,50.46
2023-01-17T04:07:15.278Z,54.71
2023-01-17T04:08:15.270Z,52.43
2023-01-17T04:09:15.262Z,53.85
2023-01-17T04:10:15.250Z,62.07
2023-01-17T04:11:15.252Z,63.28
2023-01-17T04:12:15.239Z,62.76
2023-01-17T04:13:15.222Z,65.32
2023-01-17T04:14:15.215Z,68.36
2023-01-17T04:15:15.207Z,68.67
2023-01-17T04:16:15.261Z,69.51
2023-01-17T04:17:15.194Z,70.32
2023-01-17T04:18:15.197Z,72.86
2023-01-17T04:19:15.186Z,77.50
2023-01-17T04:20:15.183Z,75.11
2023-01-17T04:21:15.168Z,82.21
2023-01-17T04:22:15.169Z,79.39
2023-01-17T04:23:15.157Z,80.41
2023-01-17T04:24:17.760Z,79.68
2023-01-17T04:25:15.147Z,84.78
2023-01-17T04:26:15.141Z,89.16
2023-01-17T04:27:15.139Z,87.59
2023-01-17T04:28:15.149Z,88.61
2023-01-17T04:29:15.121Z,88.06
2023-01-17T04:30:15.115Z,89.74
2023-01-17T04:31:15.191Z,96.76
2023-01-17T04:32:15.103Z,95.96
2023-01-17T04:33:15.092Z,95.97
2023-01-17T04:34:15.098Z,91.45
2023-01-17T04:35:15.077Z,89.27
2023-01-17T04:36:15.068Z,89.87
2023-01-17T04:37:15.073Z,89.28
2023-01-17T04:38:15.070Z,90.58
2023-01-17T04:39:15.048Z,95.34
2023-01-17T04:40:15.051Z,94.59
2023-01-17T04:41:15.033Z,93.80
2023-01-17T04:42:15.028Z,92.20
2023-01-17T04:43:15.020Z,86.39
2023-01-17T04:44:15.015Z,84.00
2023-01-17T04:45:14.990Z,81.09
2023-01-17T04:46:15.057Z,81.54
2023-01-17T04:47:14.977Z,73.53
2023-01-17T04:48:15.010Z,79.21
2023-01-17T04:49:14.959Z,75.67
2023-01-17T04:50:15.046Z,81.09
2023-01-17T04:51:14.956Z,75.76
2023-01-17T04:52:14.945Z,72.49
2023-01-17T04:53:14.945Z,66.72
2023-01-17T04:54:14.944Z,63.20
2023-01-17T04:55:14.942Z,63.96
2023-01-17T04:56:14.931Z,66.28
2023-01-17T04:57:14.929Z,66.14
2023-01-17T04:58:14.921Z,67.62
2023-01-17T04:59:14.916Z,65.35
2023-01-17T05:00:14.913Z,61.25
2023-01-17T05:01:15.145Z,62.21
2023-01-17T05:02:14.907Z,56.08
2023-01-17T05:03:14.897Z,60.53
2023-01-17T05:04:14.888Z,57.74
2023-01-17T05:05:14.889Z,54.66
2023-01-17T05:06:14.887Z,51.70
2023-01-17T05:07:14.879Z,55.07
2023-01-17T05:08:14.878Z,52.04
2023-01-17T05:09:14.865Z,57.35
2023-01-17T05:10:14.859Z,56.81
2023-01-17T05:11:14.865Z,58.28
2023-01-17T05:12:14.861Z,57.21
2023-01-17T05:13:14.831Z,62.09
2023-01-17T05:14:14.819Z,65.13
2023-01-17T05:15:14.819Z,64.87
2023-01-17T05:16:14.818Z,68.07
2023-01-17T05:17:14.819Z,67.68
2023-01-17T05:18:14.811Z,67.71
2023-01-17T05:19:14.794Z,72.26
2023-01-17T05:20:14.786Z,73.46
2023-01-17T05:21:14.776Z,74.86
2023-01-17T05:22:14.893Z,73.74
2023-01-17T05:23:14.767Z,75.14
2023-01-17T05:24:14.767Z,74.69
2023-01-17T05:25:14.758Z,79.28
2023-01-17T05:26:14.748Z,80.06
2023-01-17T05:27:14.752Z,82.77
2023-01-17T05:28:14.751Z,84.24
2023-01-17T05:29:14.739Z,83.52
2023-01-17T05:30:14.745Z,87.10
2023-01-17T05:31:14.775Z,81.41
2023-01-17T05:32:14.740Z,81.67
2023-01-17T05:33:14.739Z,84.34
2023-01-17T05:34:14.725Z,83.18
2023-01-17T05:35:14.720Z,86.05
2023-01-17T05:36:14.714Z,84.68
2023-01-17T05:37:14.710Z,91.35
2023-01-17T05:38:14.710Z,92.23
2023-01-17T05:39:14.697Z,90.23
2023-01-17T05:40:14.686Z,87.56
2023-01-17T05:41:14.750Z,85.67
2023-01-17T05:42:14.672Z,84.49
2023-01-17T05:43:14.673Z,83.80
2023-01-17T05:44:14.665Z,87.12
2023-01-17T05:45:14.654Z,82.32
2023-01-17T05:46:14.670Z,86.60
2023-01-17T05:47:14.649Z,89.22
2023-01-17T05:48:14.637Z,82.95
2023-01-17T05:49:14.641Z,83.21
2023-01-17T05:50:14.631Z,80.46
2023-01-17T05:51:14.628Z,77.92
2023-01-17T05:52:14.623Z,76.72
2023-01-17T05:53:14.626Z,69.75
2023-01-17T05:54:14.750Z,68.10
2023-01-17T05:55:14.595Z,65.47
2023-01-17T05:56:14.593Z,66.11
2023-01-17T05:57:14.608Z,66.84
2023-01-17T05:58:14.571Z,67.99
2023-01-17T05:59:14.812Z,68.38
2023-01-17T06:00:14.556Z,73.66
2023-01-17T06:01:14.591Z,73.77
2023-01-17T06:02:14.595Z,73.89
2023-01-17T06:03:14.557Z,71.97
2023-01-17T06:04:14.557Z,69.01
2023-01-17T06:05:14.512Z,69.96
2023-01-17T06:06:14.501Z,62.98
2023-01-17T06:07:14.489Z,61.43
2023-01-17T06:08:14.487Z,61.44
2023-01-17T06:09:14.487Z,65.91
2023-01-17T06:10:14.520Z,70.85
2023-01-17T06:11:14.468Z,69.54
2023-01-17T06:12:14.470Z,69.63
2023-01-17T06:13:14.459Z,70.50
2023-01-17T06:14:14.487Z,76.42
2023-01-17T06:15:14.461Z,77.06
2023-01-17T06:16:14.490Z,83.05
2023-01-17T06:17:14.452Z,80.38
2023-01-17T06:18:14.443Z,85.79
2023-01-17T06:19:14.452Z,89.27
2023-01-17T06:20:14.435Z,90.09
2023-01-17T06:21:14.447Z,94.21
2023-01-17T06:22:14.439Z,101.46
2023-01-17T06:23:14.443Z,100.83
2023-01-17T06:24:14.429Z,104.65
2023-01-17T06:25:14.417Z,106.78
2023-01-17T06:26:14.403Z,106.37
2023-01-17T06:27:14.418Z,109.73
2023-01-17T06:28:14.402Z,109.08
2023-01-17T06:29:14.384Z,115.89
2023-01-17T06:30:14.389Z,118.70
2023-01-17T06:31:14.427Z,123.64
2023-01-17T06:32:14.364Z,143.79
2023-01-17T06:33:14.360Z,150.99
2023-01-17T06:34:14.360Z,159.45
2023-01-17T06:35:14.355Z,162.81
2023-01-17T06:36:14.352Z,170.45
2023-01-17T06:37:14.345Z,177.65
2023-01-17T06:38:14.338Z,187.76
2023-01-17T06:39:15.236Z,192.26
2023-01-17T06:40:14.323Z,198.86
2023-01-17T06:41:14.313Z,201.57
2023-01-17T06:42:14.326Z,205.50
2023-01-17T06:43:14.304Z,208.66
2023-01-17T06:44:14.293Z,208.97
2023-01-17T06:45:14.298Z,209.88
2023-01-17T06:46:14.311Z,213.47
2023-01-17T06:47:14.268Z,220.31
2023-01-17T06:48:14.267Z,234.05
2023-01-17T06:49:14.259Z,235.95
2023-01-17T06:50:14.270Z,243.93
2023-01-17T06:51:14.249Z,249.69
2023-01-17T06:52:14.238Z,246.92
2023-01-17T06:53:14.223Z,250.00
2023-01-17T06:54:14.201Z,249.26
2023-01-17T06:55:14.193Z,248.99
2023-01-17T06:56:14.170Z,245.60
2023-01-17T06:57:14.159Z,247.57
2023-01-17T06:58:14.134Z,250.00
2023-01-17T06:59:14.128Z,247.68
2023-01-17T07:00:14.120Z,247.37
2023-01-17T07:01:14.251Z,244.54
2023-01-17T07:02:14.073Z,246.88
2023-01-17T07:03:14.067Z,245.77
2023-01-17T07:04:14.038Z,246.01
2023-01-17T07:05:14.039Z,246.39
2023-01-17T07:06:14.009Z,246.15
2023-01-17T07:07:13.999Z,247.07
2023-01-17T07:08:13.992Z,249.76
2023-01-17T07:09:13.976Z,247.10
2023-01-17T07:10:13.944Z,247.89
2023-01-17T07:11:19.105Z,241.86
2023-01-17T07:12:14.012Z,242.21
2023-01-17T07:13:13.912Z,242.49
2023-01-17T07:14:13.888Z,241.03
2023-01-17T07:15:13.968Z,240.89
2023-01-17T07:16:13.885Z,242.25
2023-01-17T07:17:13.841Z,240.72
2023-01-17T07:18:13.826Z,240.14
2023-01-17T07:19:13.816Z,236.35
2023-01-17T07:20:13.835Z,238.26
2023-01-17T07:21:13.793Z,236.03
2023-01-17T07:22:13.760Z,234.67
2023-01-17T07:23:13.768Z,232.28
2023-01-17T07:24:13.743Z,223.65
2023-01-17T07:25:13.736Z,219.97
2023-01-17T07:26:13.693Z,229.50
2023-01-17T07:27:13.704Z,228.50
2023-01-17T07:28:13.655Z,232.89
2023-01-17T07:29:13.651Z,219.60
2023-01-17T07:30:13.624Z,228.15
2023-01-17T07:31:13.907Z,229.32
2023-01-17T07:32:13.558Z,228.77
2023-01-17T07:33:13.541Z,233.96
2023-01-17T07:34:13.523Z,224.74
2023-01-17T07:35:13.555Z,233.24
2023-01-17T07:36:13.482Z,234.04
2023-01-17T07:37:15.181Z,239.31
2023-01-17T07:38:13.446Z,237.08
2023-01-17T07:39:13.414Z,222.55
2023-01-17T07:40:13.416Z,231.11
2023-01-17T07:41:13.493Z,233.57
2023-01-17T07:42:13.372Z,225.94
2023-01-17T07:43:13.364Z,228.66
2023-01-17T07:44:13.339Z,234.63
2023-01-17T07:45:13.361Z,242.34
2023-01-17T07:46:13.353Z,247.83
2023-01-17T07:47:13.289Z,248.45
2023-01-17T07:48:13.283Z,244.47
2023-01-17T07:49:13.291Z,246.29
2023-01-17T07:50:13.249Z,245.06
2023-01-17T07:51:13.257Z,239.58
2023-01-17T07:52:13.222Z,237.02
2023-01-17T07:53:13.189Z,238.06
2023-01-17T07:54:13.169Z,239.15
2023-01-17T07:55:13.137Z,237.44
2023-01-17T07:56:13.128Z,239.81
2023-01-17T07:57:13.098Z,246.66
2023-01-17T07:58:13.108Z,244.22
2023-01-17T07:59:13.063Z,243.84
2023-01-17T08:00:13.037Z,247.68
2023-01-17T08:01:13.177Z,250.00
2023-01-17T08:02:12.992Z,247.77
2023-01-17T08:03:12.976Z,249.34
2023-01-17T08:04:12.993Z,250.00
2023-01-17T08:05:12.956Z,250.00
2023-01-17T08:06:12.979Z,250.00
2023-01-17T08:07:12.925Z,248.83
2023-01-17T08:08:12.914Z,249.23
2023-01-17T08:09:12.878Z,247.69
2023-01-17T08:10:12.894Z,246.71
2023-01-17T08:11:12.867Z,247.11
2023-01-17T08:12:12.823Z,247.81
2023-01-17T08:13:12.804Z,248.04
2023-01-17T08:14:12.771Z,248.77
2023-01-17T08:15:12.773Z,248.71
2023-01-17T08:16:12.775Z,250.24
2023-01-17T08:17:12.704Z,254.16
2023-01-17T08:18:12.748Z,246.63
2023-01-17T08:19:12.661Z,247.54
2023-01-17T08:20:12.634Z,248.03
2023-01-17T08:21:12.598Z,246.95
2023-01-17T08:22:12.586Z,247.26
2023-01-17T08:23:12.555Z,249.09
2023-01-17T08:24:12.537Z,248.10
2023-01-17T08:25:12.499Z,248.16
2023-01-17T08:26:12.463Z,247.47
2023-01-17T08:27:12.432Z,247.42
2023-01-17T08:28:12.403Z,247.25
2023-01-17T08:29:12.400Z,248.78
2023-01-17T08:30:12.374Z,247.36
2023-01-17T08:31:12.351Z,246.76
2023-01-17T08:32:12.291Z,249.05
2023-01-17T08:33:12.265Z,248.94
2023-01-17T08:34:12.237Z,248.25
2023-01-17T08:35:12.209Z,247.39
2023-01-17T08:36:12.171Z,249.80
2023-01-17T08:37:12.159Z,241.97
2023-01-17T08:38:12.123Z,243.82
2023-01-17T08:39:12.128Z,244.67
2023-01-17T08:40:12.062Z,244.13
2023-01-17T08:41:12.069Z,244.96
2023-01-17T08:42:12.035Z,242.66
2023-01-17T08:43:11.999Z,242.73
2023-01-17T08:44:11.980Z,243.17
2023-01-17T08:45:11.953Z,243.61
2023-01-17T08:46:11.999Z,248.12
2023-01-17T08:47:11.922Z,249.20
2023-01-17T08:48:11.869Z,249.67
2023-01-17T08:49:11.851Z,249.14
2023-01-17T08:50:11.816Z,246.07
2023-01-17T08:51:11.781Z,244.95
2023-01-17T08:52:11.757Z,245.50
2023-01-17T08:53:11.732Z,247.39
2023-01-17T08:54:11.700Z,247.65
2023-01-17T08:55:11.673Z,245.51
2023-01-17T08:56:11.625Z,245.17
2023-01-17T08:57:11.615Z,242.30
2023-01-17T08:58:11.571Z,242.54
2023-01-17T08:59:11.584Z,242.84
2023-01-17T09:00:11.508Z,243.48
2023-01-17T09:01:11.589Z,243.77
2023-01-17T09:02:11.468Z,245.27
2023-01-17T09:03:11.415Z,245.17
2023-01-17T09:04:11.441Z,245.18
2023-01-17T09:05:11.351Z,244.65
2023-01-17T09:06:11.334Z,244.23
2023-01-17T09:07:11.290Z,244.76
2023-01-17T09:08:11.254Z,236.86
2023-01-17T09:09:11.236Z,237.47
2023-01-17T09:10:11.206Z,238.32
2023-01-17T09:11:11.191Z,237.67
2023-01-17T09:12:11.136Z,236.94
2023-01-17T09:13:11.960Z,232.16
2023-01-17T09:14:11.080Z,229.58
2023-01-17T09:15:11.046Z,229.33
2023-01-17T09:16:11.040Z,229.94
2023-01-17T09:17:11.983Z,229.95
2023-01-17T09:18:10.951Z,232.35
2023-01-17T09:19:10.941Z,235.34
2023-01-17T09:20:10.920Z,229.09
2023-01-17T09:21:10.898Z,226.24
2023-01-17T09:22:10.855Z,222.84
2023-01-17T09:23:10.822Z,218.03
2023-01-17T09:24:10.788Z,218.19
2023-01-17T09:25:10.768Z,218.41
2023-01-17T09:26:10.723Z,215.40
2023-01-17T09:27:10.716Z,216.52
2023-01-17T09:28:10.671Z,218.17
2023-01-17T09:29:10.639Z,218.84
2023-01-17T09:30:10.610Z,211.47
2023-01-17T09:31:10.631Z,211.70
2023-01-17T09:32:10.571Z,212.52
2023-01-17T09:33:10.535Z,211.05
2023-01-17T09:34:10.498Z,211.20
2023-01-17T09:35:10.486Z,202.63
2023-01-17T09:36:10.443Z,196.28
2023-01-17T09:37:10.426Z,198.04
2023-01-17T09:38:10.390Z,201.45
2023-01-17T09:39:10.353Z,211.14
2023-01-17T09:40:10.333Z,211.48
2023-01-17T09:41:10.300Z,212.21
2023-01-17T09:42:10.267Z,214.01
2023-01-17T09:43:10.254Z,211.94
2023-01-17T09:44:10.217Z,214.53
2023-01-17T09:45:10.191Z,215.01
2023-01-17T09:46:10.282Z,221.52
2023-01-17T09:47:10.207Z,240.97
2023-01-17T09:48:10.147Z,251.69
2023-01-17T09:49:10.107Z,262.77
2023-01-17T09:50:10.072Z,248.53
2023-01-17T09:51:10.039Z,247.54
2023-01-17T09:52:10.012Z,244.65
2023-01-17T09:53:09.981Z,241.63
2023-01-17T09:54:09.956Z,240.72
2023-01-17T09:55:09.928Z,244.18
2023-01-17T09:56:09.897Z,239.89
2023-01-17T09:57:09.863Z,242.12
2023-01-17T09:58:09.849Z,188.14
2023-01-17T09:59:09.810Z,82.35
2023-01-17T10:00:09.781Z,24.95
2023-01-17T10:01:09.875Z,19.18
2023-01-17T10:02:09.948Z,26.16
2023-01-17T10:03:09.971Z,22.26
2023-01-17T10:04:09.806Z,20.16
2023-01-17T10:05:09.772Z,22.11
2023-01-17T10:06:09.668Z,20.19
2023-01-17T10:07:09.656Z,30.11
2023-01-17T10:08:09.633Z,25.00
2023-01-17T10:09:09.622Z,23.18
2023-01-17T10:10:09.620Z,25.00
2023-01-17T10:11:09.593Z,27.50
2023-01-17T10:12:09.584Z,24.90
2023-01-17T10:13:09.586Z,24.97
2023-01-17T10:14:09.554Z,22.10
2023-01-17T10:15:09.555Z,12.83
2023-01-17T10:16:09.541Z,13.21
2023-01-17T10:17:09.525Z,14.58
2023-01-17T10:18:16.571Z,11.59
2023-01-17T10:19:10.504Z,2.73
2023-01-17T10:20:09.493Z,0.00
2023-01-17T10:21:09.500Z,0.00
2023-01-17T10:22:09.489Z,0.00
2023-01-17T10:23:09.479Z,0.00
2023-01-17T10:24:09.472Z,0.00
2023-01-17T10:25:09.468Z,0.00
2023-01-17T10:26:09.444Z,0.00
2023-01-17T10:27:09.459Z,5.04
2023-01-17T10:28:09.460Z,5.19
2023-01-17T10:29:09.438Z,3.52
2023-01-17T10:30:09.440Z,2.30
2023-01-17T10:31:09.476Z,0.00
2023-01-17T10:32:09.428Z,0.00
2023-01-17T10:33:09.459Z,10.88
2023-01-17T10:34:09.415Z,21.83
2023-01-17T10:35:09.419Z,30.23
2023-01-17T10:36:09.423Z,36.96
2023-01-17T10:37:09.401Z,21.78
2023-01-17T10:38:09.424Z,12.15
2023-01-17T10:39:09.401Z,23.77
2023-01-17T10:40:09.385Z,32.99
2023-01-17T10:41:09.380Z,40.55
2023-01-17T10:42:09.382Z,50.81
2023-01-17T10:43:09.362Z,71.42
2023-01-17T10:44:09.366Z,85.11
2023-01-17T10:45:09.342Z,105.13
2023-01-17T10:46:09.366Z,121.05
2023-01-17T10:47:09.306Z,123.72
2023-01-17T10:48:09.297Z,115.11
2023-01-17T10:49:09.285Z,108.43
2023-01-17T10:50:09.268Z,116.42
2023-01-17T10:51:09.267Z,127.51
2023-01-17T10:52:09.238Z,135.78
2023-01-17T10:53:09.232Z,133.65
2023-01-17T10:54:09.215Z,139.63
2023-01-17T10:55:09.186Z,146.03
2023-01-17T10:56:09.179Z,153.27
2023-01-17T10:57:09.411Z,151.43
2023-01-17T10:58:09.133Z,156.87
2023-01-17T10:59:09.114Z,156.57
2023-01-17T11:00:09.101Z,159.06
2023-01-17T11:01:09.165Z,161.33
2023-01-17T11:02:09.124Z,164.11
2023-01-17T11:03:09.098Z,164.38
2023-01-17T11:04:09.018Z,166.65
2023-01-17T11:05:08.990Z,168.59
2023-01-17T11:06:08.958Z,168.68
2023-01-17T11:07:08.924Z,169.07
2023-01-17T11:08:08.920Z,169.91
2023-01-17T11:09:08.882Z,169.34
2023-01-17T11:10:08.859Z,173.76
2023-01-17T11:11:08.831Z,180.33
2023-01-17T11:12:08.817Z,179.27
2023-01-17T11:13:08.788Z,179.69
2023-01-17T11:14:08.778Z,180.39
2023-01-17T11:15:08.755Z,182.63
2023-01-17T11:16:08.742Z,184.06
2023-01-17T11:17:08.703Z,185.61
2023-01-17T11:18:08.699Z,186.69
2023-01-17T11:19:08.738Z,188.07
2023-01-17T11:20:08.657Z,190.87
2023-01-17T11:21:08.631Z,192.84
2023-01-17T11:22:08.588Z,192.69
2023-01-17T11:23:08.583Z,191.97
2023-01-17T11:24:08.577Z,194.76
2023-01-17T11:25:08.521Z,195.20
2023-01-17T11:26:08.516Z,196.56
2023-01-17T11:27:08.489Z,198.55
2023-01-17T11:28:08.463Z,198.66
2023-01-17T11:29:08.454Z,198.94
2023-01-17T11:30:08.429Z,199.69
2023-01-17T11:31:08.467Z,200.62
2023-01-17T11:32:08.383Z,203.08
2023-01-17T11:33:08.365Z,202.10
2023-01-17T11:34:08.354Z,201.73
2023-01-17T11:35:08.325Z,200.58
2023-01-17T11:36:08.306Z,199.62
2023-01-17T11:37:08.309Z,200.45
2023-01-17T11:38:08.293Z,202.92
2023-01-17T11:39:08.227Z,209.03
2023-01-17T11:40:08.208Z,211.64
2023-01-17T11:41:08.194Z,213.06
2023-01-17T11:42:08.168Z,215.28
2023-01-17T11:43:08.148Z,217.66
2023-01-17T11:44:08.126Z,220.15
2023-01-17T11:45:08.149Z,219.52
2023-01-17T11:46:08.170Z,217.38
2023-01-17T11:47:08.062Z,218.78
2023-01-17T11:48:08.047Z,219.02
2023-01-17T11:49:08.002Z,220.15
2023-01-17T11:50:08.008Z,220.01
2023-01-17T11:51:07.970Z,219.28
2023-01-17T11:52:07.965Z,216.81
2023-01-17T11:53:07.936Z,214.98
2023-01-17T11:54:07.908Z,215.93
2023-01-17T11:55:07.913Z,216.24
2023-01-17T11:56:07.881Z,216.08
2023-01-17T11:57:07.873Z,215.53
2023-01-17T11:58:07.865Z,215.72
2023-01-17T11:59:07.877Z,213.91
2023-01-17T12:00:07.833Z,208.95
2023-01-17T12:01:07.858Z,207.51
2023-01-17T12:02:07.782Z,207.51
2023-01-17T12:03:07.766Z,205.05
2023-01-17T12:04:07.757Z,206.23
2023-01-17T12:05:07.797Z,202.98
2023-01-17T12:06:07.721Z,200.67
2023-01-17T12:07:07.696Z,198.72
2023-01-17T12:08:07.674Z,198.85
2023-01-17T12:09:07.660Z,199.72
2023-01-17T12:10:07.639Z,199.01
2023-01-17T12:11:07.635Z,197.45
2023-01-17T12:12:07.610Z,197.53
2023-01-17T12:13:07.594Z,196.68
2023-01-17T12:14:07.582Z,194.62
2023-01-17T12:15:07.568Z,194.31
2023-01-17T12:16:07.585Z,194.18
2023-01-17T12:17:07.519Z,193.36
2023-01-17T12:18:07.520Z,191.91
2023-01-17T12:19:07.496Z,191.52
2023-01-17T12:20:07.489Z,191.28
2023-01-17T12:21:07.469Z,191.52
2023-01-17T12:22:07.457Z,188.68
2023-01-17T12:23:07.439Z,189.71
2023-01-17T12:24:07.415Z,192.61
2023-01-17T12:25:07.412Z,191.95
2023-01-17T12:26:07.423Z,190.30
2023-01-17T12:27:07.387Z,189.46
2023-01-17T12:28:07.385Z,189.90
2023-01-17T12:29:07.363Z,187.92
2023-01-17T12:30:07.356Z,187.35
2023-01-17T12:31:07.401Z,187.61
2023-01-17T12:32:07.331Z,187.73
2023-01-17T12:33:07.318Z,187.13
2023-01-17T12:34:08.127Z,186.32
2023-01-17T12:35:07.283Z,187.06
2023-01-17T12:36:07.268Z,186.92
2023-01-17T12:37:07.259Z,187.71
2023-01-17T12:38:07.229Z,187.55
2023-01-17T12:39:07.214Z,187.63
2023-01-17T12:40:07.197Z,187.88
2023-01-17T12:41:07.227Z,188.35
2023-01-17T12:42:07.163Z,189.47
2023-01-17T12:43:07.157Z,191.38
2023-01-17T12:44:07.130Z,190.79
2023-01-17T12:45:07.118Z,189.55
2023-01-17T12:46:07.102Z,191.45
2023-01-17T12:47:07.070Z,190.94
2023-01-17T12:48:07.055Z,189.11
2023-01-17T12:49:07.034Z,188.46
2023-01-17T12:50:07.036Z,188.48
2023-01-17T12:51:07.009Z,187.11
2023-01-17T12:52:06.990Z,185.81
2023-01-17T12:53:06.974Z,184.45
2023-01-17T12:54:06.950Z,180.15
2023-01-17T12:55:06.942Z,181.74
2023-01-17T12:56:06.935Z,183.24
2023-01-17T12:57:06.917Z,181.35
2023-01-17T12:58:06.894Z,180.45
2023-01-17T12:59:06.891Z,180.19
2023-01-17T13:00:06.941Z,179.96
2023-01-17T13:01:07.041Z,180.26
2023-01-17T13:02:06.935Z,180.92
2023-01-17T13:03:06.827Z,180.27
2023-01-17T13:04:06.806Z,180.33
2023-01-17T13:05:06.794Z,180.62
2023-01-17T13:06:06.779Z,180.19
2023-01-17T13:07:06.761Z,179.74
2023-01-17T13:08:06.746Z,178.34
2023-01-17T13:09:06.726Z,178.56
2023-01-17T13:10:06.715Z,179.90
2023-01-17T13:11:06.703Z,179.42
2023-01-17T13:12:06.693Z,179.00
2023-01-17T13:13:06.683Z,179.69
2023-01-17T13:14:06.664Z,181.12
2023-01-17T13:15:06.652Z,181.35
2023-01-17T13:16:06.658Z,181.35
2023-01-17T13:17:06.631Z,181.44